createdAt,value
2023-02-24T00:01:28.435Z,1.40
2023-02-24T00:03:57.073Z,1.33
2023-02-24T00:06:36.093Z,1.90
2023-02-24T00:09:06.462Z,1.65
2023-02-24T00:11:33.226Z,1.40
2023-02-24T00:14:00.072Z,1.67
2023-02-24T00:16:27.421Z,1.40
2023-02-24T00:18:54.003Z,1.70
2023-02-24T00:21:20.816Z,1.25
2023-02-24T00:23:47.515Z,1.85
2023-02-24T00:26:15.440Z,1.02
2023-02-24T00:28:42.598Z,1.27
2023-02-24T00:31:19.946Z,1.20
2023-02-24T00:33:47.449Z,1.60
2023-02-24T00:36:24.013Z,1.27
2023-02-24T00:39:11.198Z,1.60
2023-02-24T00:41:40.668Z,2.05
2023-02-24T00:46:39.821Z,1.40
2023-02-24T00:49:18.514Z,1.27
2023-02-24T00:51:49.564Z,1.53
2023-02-24T00:54:17.947Z,1.35
2023-02-24T00:56:46.878Z,1.70
2023-02-24T00:59:16.278Z,1.15
2023-02-24T01:01:47.346Z,1.17
2023-02-24T01:04:14.357Z,1.60
2023-02-24T01:06:43.490Z,1.60
2023-02-24T01:09:15.161Z,1.40
2023-02-24T01:12:01.912Z,1.40
2023-02-24T01:14:31.112Z,1.30
2023-02-24T01:16:58.241Z,1.25
2023-02-24T01:19:34.810Z,1.33
2023-02-24T01:22:06.715Z,1.48
2023-02-24T01:24:36.360Z,1.00
2023-02-24T01:27:03.173Z,1.30
2023-02-24T01:29:30.017Z,1.70
2023-02-24T01:31:59.520Z,1.60
2023-02-24T01:36:53.376Z,1.20
2023-02-24T01:39:20.789Z,1.45
2023-02-24T01:41:50.290Z,1.65
2023-02-24T01:46:51.868Z,1.38
2023-02-24T01:49:21.922Z,1.50
2023-02-24T01:51:54.593Z,1.20
2023-02-24T01:54:23.441Z,1.13
2023-02-24T01:56:51.860Z,1.58
2023-02-24T01:59:20.067Z,1.60
2023-02-24T02:01:48.104Z,1.98
2023-02-24T02:04:31.784Z,1.33
2023-02-24T02:06:58.497Z,1.38
2023-02-24T02:09:25.953Z,1.38
2023-02-24T02:11:52.581Z,1.38
2023-02-24T02:14:21.588Z,1.27
2023-02-24T02:17:03.284Z,1.27
2023-02-24T02:19:51.118Z,1.55
2023-02-24T02:22:32.981Z,2.05
2023-02-24T02:25:07.495Z,1.73
2023-02-24T02:28:02.811Z,2.05
2023-02-24T02:30:49.187Z,1.48
2023-02-24T02:34:05.518Z,1.33
2023-02-24T02:36:43.035Z,1.67
2023-02-24T02:39:14.709Z,1.42
2023-02-24T02:42:26.553Z,1.45
2023-02-24T02:45:18.031Z,1.92
2023-02-24T02:47:53.923Z,1.45
2023-02-24T02:50:27.065Z,1.40
2023-02-24T02:53:00.810Z,1.63
2023-02-24T02:55:33.315Z,1.50
2023-02-24T02:58:02.366Z,2.35
2023-02-24T03:00:35.201Z,1.63
2023-02-24T03:03:08.031Z,2.10
2023-02-24T03:05:38.196Z,1.25
2023-02-24T03:08:06.152Z,2.08
2023-02-24T03:10:34.443Z,1.90
2023-02-24T03:13:04.020Z,1.70
2023-02-24T03:18:10.362Z,1.63
2023-02-24T03:20:42.816Z,1.98
2023-02-24T03:23:31.767Z,1.40
2023-02-24T03:26:22.045Z,1.50
2023-02-24T03:29:01.485Z,1.90
2023-02-24T03:31:41.406Z,1.98
2023-02-24T03:34:15.702Z,1.77
2023-02-24T03:36:43.477Z,1.90
2023-02-24T03:39:12.340Z,2.03
2023-02-24T03:42:02.949Z,2.20
2023-02-24T03:44:29.856Z,1.55
2023-02-24T03:46:56.410Z,1.33
2023-02-24T03:49:25.367Z,1.38
2023-02-24T03:51:59.722Z,1.35
2023-02-24T03:54:35.268Z,1.98
2023-02-24T03:57:37.146Z,1.00
2023-02-24T04:00:29.792Z,1.45
2023-02-24T04:03:37.797Z,1.55
2023-02-24T04:06:33.986Z,1.45
2023-02-24T04:09:07.922Z,1.30
2023-02-24T04:11:45.995Z,1.67
2023-02-24T04:14:27.164Z,1.55
2023-02-24T04:17:38.846Z,1.42
2023-02-24T04:20:14.877Z,2.03
2023-02-24T04:22:42.780Z,1.20
2023-02-24T04:25:13.622Z,1.50
2023-02-24T04:27:41.614Z,1.90
2023-02-24T04:30:10.819Z,2.72
2023-02-24T04:32:38.033Z,1.67
2023-02-24T04:35:10.214Z,1.70
2023-02-24T04:37:38.607Z,1.58
2023-02-24T04:40:10.868Z,0.90
2023-02-24T04:42:46.489Z,1.55
2023-02-24T04:45:17.518Z,1.08
2023-02-24T04:47:51.401Z,1.58
2023-02-24T04:50:25.930Z,1.30
2023-02-24T04:52:57.615Z,1.70
2023-02-24T04:55:26.539Z,1.27
2023-02-24T04:57:53.282Z,1.92
2023-02-24T05:00:21.796Z,1.45
2023-02-24T05:02:52.067Z,1.05
2023-02-24T05:05:25.962Z,1.42
2023-02-24T05:07:56.569Z,1.20
2023-02-24T05:10:28.215Z,1.75
2023-02-24T05:12:58.272Z,1.70
2023-02-24T05:15:31.511Z,1.52
2023-02-24T05:18:04.920Z,1.80
2023-02-24T05:20:50.147Z,1.98
2023-02-24T05:23:17.248Z,1.60
2023-02-24T05:25:43.829Z,1.50
2023-02-24T05:28:10.516Z,1.50
2023-02-24T05:30:38.043Z,1.17
2023-02-24T05:33:04.666Z,1.38
2023-02-24T05:35:32.456Z,1.20
2023-02-24T05:37:59.292Z,1.13
2023-02-24T05:40:25.848Z,1.60
2023-02-24T05:42:52.478Z,1.75
2023-02-24T05:45:19.061Z,1.45
2023-02-24T05:47:47.400Z,1.38
2023-02-24T05:50:14.040Z,1.50
2023-02-24T05:52:40.606Z,1.30
2023-02-24T05:55:07.463Z,1.30
2023-02-24T05:57:35.719Z,1.40
2023-02-24T06:00:11.205Z,1.50
2023-02-24T06:02:38.059Z,1.63
2023-02-24T06:05:08.822Z,1.50
2023-02-24T06:07:35.523Z,1.60
2023-02-24T06:10:04.928Z,1.50
2023-02-24T06:12:34.494Z,1.52
2023-02-24T06:17:28.484Z,1.33
2023-02-24T06:19:55.726Z,1.73
2023-02-24T06:22:24.445Z,1.52
2023-02-24T06:24:51.263Z,1.70
2023-02-24T06:27:19.402Z,1.25
2023-02-24T06:29:49.861Z,1.20
2023-02-24T06:32:18.458Z,1.55
2023-02-24T06:34:45.085Z,1.27
2023-02-24T06:37:13.872Z,1.05
2023-02-24T06:39:40.954Z,1.77
2023-02-24T06:42:08.947Z,1.15
2023-02-24T06:44:37.037Z,1.50
2023-02-24T06:47:03.812Z,1.60
2023-02-24T06:49:30.396Z,1.35
2023-02-24T06:51:57.671Z,2.15
2023-02-24T06:54:30.624Z,1.00
2023-02-24T06:56:59.238Z,1.50
2023-02-24T06:59:29.772Z,1.48
2023-02-24T07:01:58.134Z,1.02
2023-02-24T07:04:28.117Z,0.98
2023-02-24T07:06:57.840Z,1.20
2023-02-24T07:09:26.623Z,1.30
2023-02-24T07:11:56.047Z,1.63
2023-02-24T07:16:58.153Z,1.10
2023-02-24T07:19:26.844Z,1.05
2023-02-24T07:22:00.110Z,0.90
2023-02-24T07:24:35.853Z,0.90
2023-02-24T07:27:07.760Z,0.93
2023-02-24T07:29:35.677Z,1.55
2023-02-24T07:32:05.597Z,0.82
2023-02-24T07:34:33.798Z,0.80
2023-02-24T07:37:06.622Z,0.65
2023-02-24T07:39:33.748Z,1.25
2023-02-24T07:42:00.309Z,0.77
2023-02-24T07:44:26.794Z,0.60
2023-02-24T07:46:53.447Z,0.70
2023-02-24T07:49:23.362Z,0.70
2023-02-24T07:51:52.868Z,0.40
2023-02-24T07:56:59.706Z,0.95
2023-02-24T07:59:35.250Z,0.60
2023-02-24T08:02:04.744Z,0.30
2023-02-24T08:04:33.144Z,0.40
2023-02-24T08:07:03.431Z,0.38
2023-02-24T08:09:46.323Z,0.30
2023-02-24T08:12:18.318Z,0.40
2023-02-24T08:14:50.870Z,0.32
2023-02-24T08:17:27.398Z,0.40
2023-02-24T08:20:13.672Z,0.40
2023-02-24T08:22:46.666Z,0.52
2023-02-24T08:25:22.573Z,0.50
2023-02-24T08:28:07.314Z,0.68
2023-02-24T08:30:40.839Z,0.40
2023-02-24T08:33:10.460Z,0.30
2023-02-24T08:38:08.466Z,0.30
2023-02-24T08:40:49.997Z,0.30
2023-02-24T08:43:29.255Z,0.20
2023-02-24T08:46:14.002Z,0.20
2023-02-24T08:48:43.377Z,0.50
2023-02-24T08:51:29.265Z,0.28
2023-02-24T08:53:59.082Z,0.30
2023-02-24T08:56:34.396Z,0.30
2023-02-24T08:59:06.625Z,0.28
2023-02-24T09:01:36.242Z,0.32
2023-02-24T09:04:05.905Z,0.25
2023-02-24T09:06:46.033Z,0.20
2023-02-24T09:09:22.565Z,0.30
2023-02-24T09:12:00.012Z,0.30
2023-02-24T09:14:29.444Z,0.40
2023-02-24T09:19:40.983Z,0.40
2023-02-24T09:22:21.233Z,0.25
2023-02-24T09:24:51.194Z,0.40
2023-02-24T09:27:17.885Z,0.30
2023-02-24T09:29:50.442Z,0.40
2023-02-24T09:32:17.177Z,0.30
2023-02-24T09:34:44.650Z,0.40
2023-02-24T09:37:31.659Z,0.40
2023-02-24T09:39:58.355Z,0.60
2023-02-24T09:42:27.415Z,0.63
2023-02-24T09:45:01.596Z,0.50
2023-02-24T09:47:40.103Z,0.40
2023-02-24T09:50:55.032Z,0.53
2023-02-24T09:53:19.743Z,0.40
2023-02-24T09:56:24.677Z,0.40
2023-02-24T09:58:53.758Z,0.50
2023-02-24T10:01:44.619Z,0.38
2023-02-24T10:04:29.955Z,0.32
2023-02-24T10:07:07.237Z,0.45
2023-02-24T10:09:44.532Z,0.95
2023-02-24T10:12:24.118Z,0.57
2023-02-24T10:15:19.141Z,0.40
2023-02-24T10:17:57.773Z,0.63
2023-02-24T10:20:39.664Z,0.63
2023-02-24T10:23:29.772Z,0.60
2023-02-24T10:26:06.778Z,0.73
2023-02-24T10:28:52.111Z,0.60
2023-02-24T10:31:46.100Z,0.47
2023-02-24T10:34:26.599Z,0.45
2023-02-24T10:36:53.187Z,0.60
2023-02-24T10:39:25.756Z,0.60
2023-02-24T10:41:57.568Z,0.60
2023-02-24T10:44:27.156Z,0.90
2023-02-24T10:47:11.673Z,0.60
2023-02-24T10:49:59.861Z,1.40
2023-02-24T10:53:02.071Z,0.70
2023-02-24T10:55:43.817Z,0.82
2023-02-24T10:58:38.236Z,0.88
2023-02-24T11:01:40.945Z,0.60
2023-02-24T11:04:33.428Z,1.00
2023-02-24T11:07:10.459Z,0.93
2023-02-24T11:09:58.956Z,0.77
2023-02-24T11:12:44.457Z,1.17
2023-02-24T11:16:05.475Z,0.68
2023-02-24T11:18:32.588Z,0.93
2023-02-24T11:21:12.643Z,1.05
2023-02-24T11:23:43.274Z,1.20
2023-02-24T11:26:22.385Z,1.00
2023-02-24T11:28:59.890Z,1.20
2023-02-24T11:32:10.701Z,1.13
2023-02-24T11:34:49.357Z,1.35
2023-02-24T11:37:46.113Z,1.27
2023-02-24T11:40:19.829Z,1.40
2023-02-24T11:42:56.359Z,1.25
2023-02-24T11:45:48.279Z,0.93
2023-02-24T11:48:27.027Z,1.60
2023-02-24T11:51:00.680Z,1.45
2023-02-24T11:53:45.976Z,1.10
2023-02-24T11:56:27.210Z,1.17
2023-02-24T11:59:33.523Z,1.30
2023-02-24T12:02:30.225Z,2.63
2023-02-24T12:05:03.429Z,1.10
2023-02-24T12:07:50.409Z,1.30
2023-02-24T12:10:29.624Z,1.60
2023-02-24T12:13:11.848Z,2.05
2023-02-24T12:15:59.485Z,1.70
2023-02-24T12:18:34.548Z,1.35
2023-02-24T12:21:06.790Z,1.88
2023-02-24T12:23:35.583Z,1.52
2023-02-24T12:26:17.909Z,1.77
2023-02-24T12:28:51.377Z,1.40
2023-02-24T12:31:45.861Z,1.70
2023-02-24T12:34:17.958Z,1.52
2023-02-24T12:36:58.407Z,1.30
2023-02-24T12:39:31.701Z,1.80
2023-02-24T12:42:07.808Z,1.75
2023-02-24T12:44:41.885Z,2.22
2023-02-24T12:47:13.126Z,1.85
2023-02-24T12:50:01.353Z,1.80
2023-02-24T12:52:35.613Z,1.95
2023-02-24T12:55:12.997Z,1.80
2023-02-24T12:57:48.385Z,1.85
2023-02-24T13:00:44.298Z,1.48
2023-02-24T13:03:16.964Z,1.80
2023-02-24T13:05:49.418Z,1.77
2023-02-24T13:08:28.471Z,2.00
2023-02-24T13:11:18.301Z,2.00
2023-02-24T13:13:50.463Z,1.38
2023-02-24T13:16:30.960Z,1.90
2023-02-24T13:19:21.851Z,1.50
2023-02-24T13:22:16.819Z,1.10
2023-02-24T13:24:55.140Z,1.20
2023-02-24T13:27:22.662Z,1.77
2023-02-24T13:30:12.477Z,1.80
2023-02-24T13:32:40.268Z,1.13
2023-02-24T13:35:27.008Z,1.20
2023-02-24T13:37:54.267Z,1.50
2023-02-24T13:40:23.831Z,1.50
2023-02-24T13:42:58.288Z,1.45
2023-02-24T13:45:25.981Z,1.63
2023-02-24T13:48:32.053Z,1.50
2023-02-24T13:51:08.684Z,1.40
2023-02-24T13:54:02.788Z,1.33
2023-02-24T13:57:07.551Z,1.67
2023-02-24T13:59:52.667Z,1.90
2023-02-24T14:02:27.314Z,2.28
2023-02-24T14:04:56.744Z,1.83
2023-02-24T14:09:59.697Z,1.88
2023-02-24T14:12:32.443Z,1.80
2023-02-24T14:14:59.140Z,0.70
2023-02-24T14:17:28.885Z,0.93
2023-02-24T14:20:16.901Z,0.47
2023-02-24T14:22:46.066Z,0.43
2023-02-24T14:25:13.460Z,0.60
2023-02-24T14:27:40.386Z,0.52
2023-02-24T14:30:08.144Z,0.70
2023-02-24T14:32:35.118Z,0.50
2023-02-24T14:35:01.853Z,0.68
2023-02-24T14:37:30.416Z,0.60
2023-02-24T14:39:59.105Z,0.70
2023-02-24T14:42:26.824Z,0.50
2023-02-24T14:44:57.207Z,0.73
2023-02-24T14:47:26.514Z,0.75
2023-02-24T14:49:58.359Z,0.70
2023-02-24T14:52:42.186Z,0.80
2023-02-24T14:55:22.404Z,0.70
2023-02-24T14:58:02.921Z,0.70
2023-02-24T15:00:36.691Z,0.47
2023-02-24T15:03:03.286Z,0.50
2023-02-24T15:05:29.983Z,0.65
2023-02-24T15:07:58.499Z,0.85
2023-02-24T15:10:27.411Z,0.93
2023-02-24T15:13:01.195Z,0.60
2023-02-24T15:15:35.118Z,0.60
2023-02-24T15:18:08.578Z,0.57
2023-02-24T15:20:39.633Z,1.77
2023-02-24T15:23:07.093Z,0.52
2023-02-24T15:25:45.718Z,0.80
2023-02-24T15:28:33.406Z,0.83
2023-02-24T15:31:05.922Z,0.50
2023-02-24T15:33:38.988Z,0.95
2023-02-24T15:36:17.311Z,1.35
2023-02-24T15:38:44.343Z,0.70
2023-02-24T15:41:12.853Z,1.25
2023-02-24T15:43:48.420Z,0.77
2023-02-24T15:46:30.509Z,0.88
2023-02-24T15:49:01.702Z,0.77
2023-02-24T15:51:31.591Z,0.80
2023-02-24T15:54:01.140Z,0.82
2023-02-24T15:56:28.665Z,0.60
2023-02-24T15:58:55.188Z,0.82
2023-02-24T16:01:21.822Z,0.75
2023-02-24T16:03:49.655Z,1.70
2023-02-24T16:06:21.676Z,1.67
2023-02-24T16:08:49.224Z,0.65
2023-02-24T16:11:17.745Z,0.70
2023-02-24T16:13:50.210Z,0.75
2023-02-24T16:16:16.934Z,0.75
2023-02-24T16:18:44.861Z,0.73
2023-02-24T16:21:11.509Z,1.10
2023-02-24T16:23:40.912Z,0.68
2023-02-24T16:26:27.751Z,0.60
2023-02-24T16:28:56.850Z,0.70
2023-02-24T16:31:25.076Z,0.90
2023-02-24T16:33:55.273Z,0.50
2023-02-24T16:36:24.545Z,0.63
2023-02-24T16:38:51.746Z,0.70
2023-02-24T16:41:18.883Z,0.60
2023-02-24T16:43:45.477Z,0.70
2023-02-24T16:46:17.201Z,0.63
2023-02-24T16:48:46.414Z,0.63
2023-02-24T16:51:14.389Z,0.77
2023-02-24T16:53:41.139Z,0.70
2023-02-24T16:56:07.986Z,0.90
2023-02-24T16:58:34.793Z,0.90
2023-02-24T17:01:02.784Z,1.52
2023-02-24T17:03:36.545Z,0.70
2023-02-24T17:06:03.144Z,0.95
2023-02-24T17:08:30.018Z,0.90
2023-02-24T17:10:56.649Z,0.70
2023-02-24T17:13:23.212Z,0.85
2023-02-24T17:15:55.264Z,0.73
2023-02-24T17:18:22.649Z,0.95
2023-02-24T17:20:49.627Z,1.40
2023-02-24T17:23:16.223Z,1.63
2023-02-24T17:25:42.750Z,1.20
2023-02-24T17:28:10.600Z,1.55
2023-02-24T17:30:37.423Z,2.30
2023-02-24T17:33:04.305Z,1.63
2023-02-24T17:35:31.175Z,1.25
2023-02-24T17:37:57.914Z,1.38
2023-02-24T17:40:24.573Z,0.80
2023-02-24T17:42:51.498Z,1.00
2023-02-24T17:45:18.473Z,0.98
2023-02-24T17:47:45.045Z,1.13
2023-02-24T17:50:12.603Z,1.27
2023-02-24T17:52:39.593Z,1.85
2023-02-24T17:55:07.475Z,0.90
2023-02-24T17:57:34.781Z,0.98
2023-02-24T18:00:01.316Z,1.10
2023-02-24T18:02:28.016Z,1.23
2023-02-24T18:04:55.373Z,0.90
2023-02-24T18:07:21.972Z,1.08
2023-02-24T18:09:48.565Z,1.30
2023-02-24T18:12:17.261Z,1.70
2023-02-24T18:14:43.997Z,1.48
2023-02-24T18:17:11.158Z,1.45
2023-02-24T18:19:37.747Z,1.38
2023-02-24T18:22:04.291Z,1.50
2023-02-24T18:24:30.878Z,1.60
2023-02-24T18:26:57.449Z,1.08
2023-02-24T18:29:24.037Z,1.13
2023-02-24T18:31:50.778Z,0.85
2023-02-24T18:34:17.513Z,0.80
2023-02-24T18:36:44.045Z,0.60
2023-02-24T18:39:14.609Z,0.82
2023-02-24T18:41:41.687Z,0.88
2023-02-24T18:44:09.035Z,0.80
2023-02-24T18:46:36.247Z,1.05
2023-02-24T18:49:03.874Z,0.90
2023-02-24T18:51:30.522Z,0.82
2023-02-24T18:53:58.351Z,1.35
2023-02-24T18:56:26.891Z,1.05
2023-02-24T18:58:58.125Z,0.80
2023-02-24T19:01:27.140Z,0.80
2023-02-24T19:03:55.433Z,1.08
2023-02-24T19:06:23.342Z,0.95
2023-02-24T19:08:56.517Z,1.20
2023-02-24T19:11:23.256Z,1.10
2023-02-24T19:13:49.866Z,0.90
2023-02-24T19:16:18.212Z,0.80
2023-02-24T19:18:45.297Z,0.77
2023-02-24T19:21:13.054Z,0.65
2023-02-24T19:23:39.626Z,0.80
2023-02-24T19:26:07.574Z,1.00
2023-02-24T19:28:34.156Z,0.77
2023-02-24T19:31:00.782Z,0.98
2023-02-24T19:33:27.422Z,1.38
2023-02-24T19:35:58.218Z,1.42
2023-02-24T19:38:24.790Z,1.65
2023-02-24T19:40:51.366Z,1.70
2023-02-24T19:43:17.876Z,1.30
2023-02-24T19:45:44.490Z,1.42
2023-02-24T19:48:11.034Z,1.05
2023-02-24T19:50:41.130Z,1.00
2023-02-24T19:53:08.072Z,0.90
2023-02-24T19:55:34.700Z,1.00
2023-02-24T19:58:01.240Z,1.17
2023-02-24T20:00:27.776Z,1.00
2023-02-24T20:02:54.362Z,1.33
2023-02-24T20:05:20.954Z,1.10
2023-02-24T20:07:47.786Z,1.17
2023-02-24T20:10:16.492Z,1.08
2023-02-24T20:12:43.304Z,1.40
2023-02-24T20:15:10.320Z,1.40
2023-02-24T20:17:36.924Z,1.52
2023-02-24T20:20:04.032Z,1.50
2023-02-24T20:22:30.717Z,1.60
2023-02-24T20:24:57.263Z,2.00
2023-02-24T20:27:23.882Z,2.10
2023-02-24T20:29:53.376Z,1.98
2023-02-24T20:32:20.282Z,1.73
2023-02-24T20:34:46.965Z,1.88
2023-02-24T20:37:13.533Z,1.83
2023-02-24T20:39:40.081Z,1.65
2023-02-24T20:42:06.683Z,1.80
2023-02-24T20:44:33.612Z,1.90
2023-02-24T20:47:00.205Z,2.13
2023-02-24T20:49:27.307Z,2.25
2023-02-24T20:51:54.114Z,2.05
2023-02-24T20:54:20.679Z,2.00
2023-02-24T20:56:48.100Z,1.92
2023-02-24T20:59:18.055Z,1.77
2023-02-24T21:01:47.437Z,2.10
2023-02-24T21:04:16.157Z,1.90
2023-02-24T21:06:43.040Z,1.70
2023-02-24T21:09:12.017Z,1.80
2023-02-24T21:11:38.768Z,1.63
2023-02-24T21:14:06.132Z,1.80
2023-02-24T21:16:34.824Z,2.13
2023-02-24T21:19:01.588Z,1.90
2023-02-24T21:21:28.135Z,1.30
2023-02-24T21:23:55.819Z,1.58
2023-02-24T21:26:24.824Z,1.45
2023-02-24T21:28:56.866Z,1.80
2023-02-24T21:31:24.345Z,1.02
2023-02-24T21:33:52.322Z,1.55
2023-02-24T21:36:21.576Z,1.20
2023-02-24T21:38:48.631Z,0.70
2023-02-24T21:41:16.080Z,0.80
2023-02-24T21:43:44.271Z,0.70
2023-02-24T21:46:13.201Z,0.60
2023-02-24T21:48:40.744Z,0.60
2023-02-24T21:51:09.577Z,0.70
2023-02-24T21:53:39.356Z,0.50
2023-02-24T21:58:38.972Z,0.75
2023-02-24T22:01:10.684Z,0.75
2023-02-24T22:03:37.681Z,0.60
2023-02-24T22:06:04.725Z,0.80
2023-02-24T22:08:31.552Z,0.52
2023-02-24T22:11:01.325Z,0.50
2023-02-24T22:13:28.085Z,0.60
2023-02-24T22:15:54.673Z,0.40
2023-02-24T22:18:21.354Z,0.50
2023-02-24T22:20:47.854Z,0.40
2023-02-24T22:23:14.405Z,0.32
2023-02-24T22:25:41.028Z,0.60
2023-02-24T22:28:07.623Z,0.38
2023-02-24T22:30:34.160Z,0.30
2023-02-24T22:33:00.854Z,0.40
2023-02-24T22:35:27.487Z,0.38
2023-02-24T22:37:54.073Z,0.22
2023-02-24T22:40:20.931Z,0.38
2023-02-24T22:42:47.495Z,0.30
2023-02-24T22:45:14.080Z,0.20
2023-02-24T22:47:40.707Z,0.20
2023-02-24T22:50:07.696Z,0.30
2023-02-24T22:52:34.239Z,0.22
2023-02-24T22:55:01.502Z,0.20
2023-02-24T22:57:30.552Z,0.20
2023-02-24T22:59:57.071Z,0.20
2023-02-24T23:02:23.810Z,0.10
2023-02-24T23:04:50.398Z,0.17
2023-02-24T23:07:16.943Z,0.20
2023-02-24T23:09:52.783Z,0.10
2023-02-24T23:12:20.693Z,0.10
2023-02-24T23:14:47.297Z,0.10
2023-02-24T23:17:13.866Z,0.10
2023-02-24T23:19:40.376Z,0.20
2023-02-24T23:22:07.979Z,0.20
2023-02-24T23:24:34.664Z,0.20
2023-02-24T23:27:01.225Z,0.20
2023-02-24T23:29:27.826Z,0.20
2023-02-24T23:31:54.579Z,0.15
2023-02-24T23:34:21.287Z,0.20
2023-02-24T23:36:48.319Z,0.20
2023-02-24T23:39:17.164Z,0.30
2023-02-24T23:41:43.742Z,0.30
2023-02-24T23:44:10.346Z,0.30
2023-02-24T23:46:37.511Z,0.20
2023-02-24T23:49:04.715Z,0.20
2023-02-24T23:51:46.966Z,0.30
2023-02-24T23:54:14.536Z,0.20
2023-02-24T23:56:41.240Z,0.20
2023-02-24T23:59:07.823Z,0.25
